sensor_id;sensor_type;location;lat;lon;timestamp;P1;durP1;ratioP1;P2;durP2;ratioP2
30818;SDS011;17546;42.674;23.284;2023-05-13T00:02:00;7.95;;;2.85;;
30818;SDS011;17546;42.674;23.284;2023-05-13T00:04:26;6.88;;;3.20;;
30818;SDS011;17546;42.674;23.284;2023-05-13T00:10:17;6.03;;;3.22;;
30818;SDS011;17546;42.674;23.284;2023-05-13T00:12:44;23.42;;;14.90;;
30818;SDS011;17546;42.674;23.284;2023-05-13T00:22:05;20.48;;;14.13;;
30818;SDS011;17546;42.674;23.284;2023-05-13T00:24:31;25.63;;;16.30;;
30818;SDS011;17546;42.674;23.284;2023-05-13T00:26:56;17.52;;;11.30;;
30818;SDS011;17546;42.674;23.284;2023-05-13T00:29:26;15.63;;;6.07;;
30818;SDS011;17546;42.674;23.284;2023-05-13T00:31:52;8.48;;;4.90;;
30818;SDS011;17546;42.674;23.284;2023-05-13T00:34:17;7.80;;;4.32;;
30818;SDS011;17546;42.674;23.284;2023-05-13T00:40:03;9.43;;;4.45;;
30818;SDS011;17546;42.674;23.284;2023-05-13T00:42:29;7.20;;;4.50;;
30818;SDS011;17546;42.674;23.284;2023-05-13T00:44:54;9.25;;;4.65;;
30818;SDS011;17546;42.674;23.284;2023-05-13T00:47:20;9.52;;;4.72;;
30818;SDS011;17546;42.674;23.284;2023-05-13T01:00:07;9.38;;;5.90;;
30818;SDS011;17546;42.674;23.284;2023-05-13T01:21:27;10.57;;;6.45;;
30818;SDS011;17546;42.674;23.284;2023-05-13T01:23:53;14.95;;;5.97;;
30818;SDS011;17546;42.674;23.284;2023-05-13T01:26:20;9.75;;;6.40;;
30818;SDS011;17546;42.674;23.284;2023-05-13T01:31:44;11.35;;;6.13;;
30818;SDS011;17546;42.674;23.284;2023-05-13T01:34:10;11.52;;;5.85;;
30818;SDS011;17546;42.674;23.284;2023-05-13T01:40:04;11.07;;;6.68;;
30818;SDS011;17546;42.674;23.284;2023-05-13T01:42:31;13.60;;;6.68;;
30818;SDS011;17546;42.674;23.284;2023-05-13T01:44:58;9.07;;;6.35;;
30818;SDS011;17546;42.674;23.284;2023-05-13T01:47:31;11.20;;;6.45;;
30818;SDS011;17546;42.674;23.284;2023-05-13T01:49:56;12.15;;;6.35;;
30818;SDS011;17546;42.674;23.284;2023-05-13T01:52:22;10.63;;;6.20;;
30818;SDS011;17546;42.674;23.284;2023-05-13T01:57:45;9.88;;;5.38;;
30818;SDS011;17546;42.674;23.284;2023-05-13T02:00:11;12.50;;;5.53;;
30818;SDS011;17546;42.674;23.284;2023-05-13T02:05:56;11.57;;;6.13;;
30818;SDS011;17546;42.674;23.284;2023-05-13T02:08:22;9.25;;;6.00;;
30818;SDS011;17546;42.674;23.284;2023-05-13T02:17:40;10.40;;;5.88;;
30818;SDS011;17546;42.674;23.284;2023-05-13T02:20:06;10.25;;;6.15;;
30818;SDS011;17546;42.674;23.284;2023-05-13T02:25:26;10.07;;;6.15;;
30818;SDS011;17546;42.674;23.284;2023-05-13T02:27:52;15.23;;;6.50;;
30818;SDS011;17546;42.674;23.284;2023-05-13T02:43:26;13.85;;;7.22;;
30818;SDS011;17546;42.674;23.284;2023-05-13T02:45:52;9.35;;;6.80;;
30818;SDS011;17546;42.674;23.284;2023-05-13T02:54:36;12.50;;;6.60;;
30818;SDS011;17546;42.674;23.284;2023-05-13T02:57:02;9.95;;;7.40;;
30818;SDS011;17546;42.674;23.284;2023-05-13T03:02:47;11.93;;;6.85;;
30818;SDS011;17546;42.674;23.284;2023-05-13T03:05:13;11.35;;;6.60;;
30818;SDS011;17546;42.674;23.284;2023-05-13T03:07:46;14.43;;;6.88;;
30818;SDS011;17546;42.674;23.284;2023-05-13T03:10:12;16.52;;;7.47;;
30818;SDS011;17546;42.674;23.284;2023-05-13T03:12:37;11.10;;;6.70;;
30818;SDS011;17546;42.674;23.284;2023-05-13T03:18:29;14.00;;;7.43;;
30818;SDS011;17546;42.674;23.284;2023-05-13T03:20:56;15.88;;;7.03;;
30818;SDS011;17546;42.674;23.284;2023-05-13T03:23:22;13.45;;;6.28;;
30818;SDS011;17546;42.674;23.284;2023-05-13T03:31:09;17.30;;;7.15;;
30818;SDS011;17546;42.674;23.284;2023-05-13T03:36:53;14.85;;;7.55;;
30818;SDS011;17546;42.674;23.284;2023-05-13T03:39:18;11.77;;;6.53;;
30818;SDS011;17546;42.674;23.284;2023-05-13T03:52:00;12.82;;;6.70;;
30818;SDS011;17546;42.674;23.284;2023-05-13T03:54:26;15.77;;;7.05;;
30818;SDS011;17546;42.674;23.284;2023-05-13T04:10:32;16.45;;;8.85;;
30818;SDS011;17546;42.674;23.284;2023-05-13T04:12:58;18.60;;;9.50;;
30818;SDS011;17546;42.674;23.284;2023-05-13T04:19:01;17.02;;;9.48;;
30818;SDS011;17546;42.674;23.284;2023-05-13T04:21:27;18.65;;;9.20;;
30818;SDS011;17546;42.674;23.284;2023-05-13T04:23:52;18.50;;;9.82;;
30818;SDS011;17546;42.674;23.284;2023-05-13T04:26:22;22.67;;;13.00;;
30818;SDS011;17546;42.674;23.284;2023-05-13T04:28:49;22.67;;;14.63;;
30818;SDS011;17546;42.674;23.284;2023-05-13T04:31:14;26.90;;;17.45;;
30818;SDS011;17546;42.674;23.284;2023-05-13T04:33:40;22.02;;;15.02;;
30818;SDS011;17546;42.674;23.284;2023-05-13T04:36:05;20.77;;;11.55;;
30818;SDS011;17546;42.674;23.284;2023-05-13T04:41:28;17.50;;;9.82;;
30818;SDS011;17546;42.674;23.284;2023-05-13T04:43:54;13.10;;;8.75;;
30818;SDS011;17546;42.674;23.284;2023-05-13T04:46:19;16.00;;;7.25;;
30818;SDS011;17546;42.674;23.284;2023-05-13T04:48:45;14.15;;;7.28;;
30818;SDS011;17546;42.674;23.284;2023-05-13T04:51:12;13.15;;;7.00;;
30818;SDS011;17546;42.674;23.284;2023-05-13T05:03:23;12.95;;;5.68;;
30818;SDS011;17546;42.674;23.284;2023-05-13T05:05:48;10.43;;;6.03;;
30818;SDS011;17546;42.674;23.284;2023-05-13T05:11:51;13.03;;;6.73;;
30818;SDS011;17546;42.674;23.284;2023-05-13T05:14:16;15.55;;;6.38;;
30818;SDS011;17546;42.674;23.284;2023-05-13T05:16:54;13.30;;;6.78;;
30818;SDS011;17546;42.674;23.284;2023-05-13T05:19:19;10.30;;;5.95;;
30818;SDS011;17546;42.674;23.284;2023-05-13T05:21:48;9.10;;;5.78;;
30818;SDS011;17546;42.674;23.284;2023-05-13T05:24:19;15.50;;;6.50;;
30818;SDS011;17546;42.674;23.284;2023-05-13T05:26:45;19.25;;;6.60;;
30818;SDS011;17546;42.674;23.284;2023-05-13T05:29:10;13.40;;;7.15;;
30818;SDS011;17546;42.674;23.284;2023-05-13T05:31:36;18.50;;;6.75;;
30818;SDS011;17546;42.674;23.284;2023-05-13T05:34:01;12.20;;;7.03;;
30818;SDS011;17546;42.674;23.284;2023-05-13T05:36:30;15.77;;;6.57;;
30818;SDS011;17546;42.674;23.284;2023-05-13T05:38:55;10.40;;;7.03;;
30818;SDS011;17546;42.674;23.284;2023-05-13T05:41:21;15.15;;;6.32;;
30818;SDS011;17546;42.674;23.284;2023-05-13T05:43:47;14.35;;;6.35;;
30818;SDS011;17546;42.674;23.284;2023-05-13T05:46:12;15.10;;;6.57;;
30818;SDS011;17546;42.674;23.284;2023-05-13T05:48:38;12.50;;;6.75;;
30818;SDS011;17546;42.674;23.284;2023-05-13T05:51:04;14.13;;;6.32;;
30818;SDS011;17546;42.674;23.284;2023-05-13T05:53:30;14.35;;;7.80;;
30818;SDS011;17546;42.674;23.284;2023-05-13T05:55:57;11.45;;;6.90;;
30818;SDS011;17546;42.674;23.284;2023-05-13T05:58:23;19.85;;;6.50;;
30818;SDS011;17546;42.674;23.284;2023-05-13T06:00:52;13.77;;;6.05;;
30818;SDS011;17546;42.674;23.284;2023-05-13T06:03:22;9.90;;;5.85;;
30818;SDS011;17546;42.674;23.284;2023-05-13T06:05:47;14.52;;;6.50;;
30818;SDS011;17546;42.674;23.284;2023-05-13T06:08:16;11.50;;;5.85;;
30818;SDS011;17546;42.674;23.284;2023-05-13T06:10:42;16.63;;;6.90;;
30818;SDS011;17546;42.674;23.284;2023-05-13T06:13:07;19.52;;;7.72;;
30818;SDS011;17546;42.674;23.284;2023-05-13T06:15:35;16.45;;;7.45;;
30818;SDS011;17546;42.674;23.284;2023-05-13T06:18:01;13.40;;;7.63;;
30818;SDS011;17546;42.674;23.284;2023-05-13T06:20:29;13.45;;;6.80;;
30818;SDS011;17546;42.674;23.284;2023-05-13T06:22:55;15.63;;;7.13;;
30818;SDS011;17546;42.674;23.284;2023-05-13T06:25:20;21.25;;;7.63;;
30818;SDS011;17546;42.674;23.284;2023-05-13T06:27:46;14.88;;;6.85;;
30818;SDS011;17546;42.674;23.284;2023-05-13T06:30:11;12.45;;;6.88;;
30818;SDS011;17546;42.674;23.284;2023-05-13T06:32:37;13.38;;;6.90;;
30818;SDS011;17546;42.674;23.284;2023-05-13T06:35:02;12.13;;;6.80;;
30818;SDS011;17546;42.674;23.284;2023-05-13T06:37:28;14.90;;;7.15;;
30818;SDS011;17546;42.674;23.284;2023-05-13T06:39:53;16.20;;;7.35;;
30818;SDS011;17546;42.674;23.284;2023-05-13T06:42:19;14.70;;;5.95;;
30818;SDS011;17546;42.674;23.284;2023-05-13T06:44:44;13.80;;;7.03;;
30818;SDS011;17546;42.674;23.284;2023-05-13T06:47:09;18.67;;;8.43;;
30818;SDS011;17546;42.674;23.284;2023-05-13T06:49:43;13.90;;;7.68;;
30818;SDS011;17546;42.674;23.284;2023-05-13T06:52:09;17.23;;;5.80;;
30818;SDS011;17546;42.674;23.284;2023-05-13T06:54:35;12.93;;;5.45;;
30818;SDS011;17546;42.674;23.284;2023-05-13T06:57:09;11.45;;;5.72;;
30818;SDS011;17546;42.674;23.284;2023-05-13T06:59:36;11.82;;;5.90;;
30818;SDS011;17546;42.674;23.284;2023-05-13T07:02:01;18.23;;;5.82;;
30818;SDS011;17546;42.674;23.284;2023-05-13T07:04:28;10.93;;;5.18;;
30818;SDS011;17546;42.674;23.284;2023-05-13T07:06:57;13.25;;;5.28;;
30818;SDS011;17546;42.674;23.284;2023-05-13T07:09:22;14.00;;;5.22;;
30818;SDS011;17546;42.674;23.284;2023-05-13T07:11:47;13.73;;;5.43;;
30818;SDS011;17546;42.674;23.284;2023-05-13T07:14:13;12.65;;;5.07;;
30818;SDS011;17546;42.674;23.284;2023-05-13T07:16:38;16.23;;;5.15;;
30818;SDS011;17546;42.674;23.284;2023-05-13T07:19:05;9.50;;;4.68;;
30818;SDS011;17546;42.674;23.284;2023-05-13T07:21:30;11.30;;;4.65;;
30818;SDS011;17546;42.674;23.284;2023-05-13T07:23:57;12.93;;;5.43;;
30818;SDS011;17546;42.674;23.284;2023-05-13T07:26:22;12.40;;;6.03;;
30818;SDS011;17546;42.674;23.284;2023-05-13T07:28:48;8.20;;;5.40;;
30818;SDS011;17546;42.674;23.284;2023-05-13T07:31:16;13.18;;;6.15;;
30818;SDS011;17546;42.674;23.284;2023-05-13T07:33:41;16.13;;;5.82;;
30818;SDS011;17546;42.674;23.284;2023-05-13T07:36:07;11.88;;;5.75;;
30818;SDS011;17546;42.674;23.284;2023-05-13T07:38:32;10.82;;;5.47;;
30818;SDS011;17546;42.674;23.284;2023-05-13T07:40:58;14.32;;;5.50;;
30818;SDS011;17546;42.674;23.284;2023-05-13T07:43:24;14.85;;;5.70;;
30818;SDS011;17546;42.674;23.284;2023-05-13T07:45:51;19.17;;;5.80;;
30818;SDS011;17546;42.674;23.284;2023-05-13T07:48:17;16.75;;;5.45;;
30818;SDS011;17546;42.674;23.284;2023-05-13T07:50:44;17.15;;;6.50;;
30818;SDS011;17546;42.674;23.284;2023-05-13T07:53:10;10.55;;;5.78;;
30818;SDS011;17546;42.674;23.284;2023-05-13T07:55:36;9.20;;;5.22;;
30818;SDS011;17546;42.674;23.284;2023-05-13T07:58:03;14.43;;;4.88;;
30818;SDS011;17546;42.674;23.284;2023-05-13T08:00:30;15.60;;;5.15;;
30818;SDS011;17546;42.674;23.284;2023-05-13T08:02:55;13.20;;;5.07;;
30818;SDS011;17546;42.674;23.284;2023-05-13T08:05:22;15.98;;;5.75;;
30818;SDS011;17546;42.674;23.284;2023-05-13T08:07:47;12.60;;;5.28;;
30818;SDS011;17546;42.674;23.284;2023-05-13T08:10:13;16.25;;;5.47;;
30818;SDS011;17546;42.674;23.284;2023-05-13T08:12:38;14.00;;;5.57;;
30818;SDS011;17546;42.674;23.284;2023-05-13T08:15:04;12.48;;;5.93;;
30818;SDS011;17546;42.674;23.284;2023-05-13T08:17:31;10.85;;;6.20;;
30818;SDS011;17546;42.674;23.284;2023-05-13T08:19:59;12.95;;;6.53;;
30818;SDS011;17546;42.674;23.284;2023-05-13T08:22:25;11.95;;;7.10;;
30818;SDS011;17546;42.674;23.284;2023-05-13T08:24:50;13.18;;;7.65;;
30818;SDS011;17546;42.674;23.284;2023-05-13T08:30:42;13.90;;;6.70;;
30818;SDS011;17546;42.674;23.284;2023-05-13T08:33:08;11.95;;;6.47;;
30818;SDS011;17546;42.674;23.284;2023-05-13T08:35:35;14.65;;;7.13;;
30818;SDS011;17546;42.674;23.284;2023-05-13T08:38:00;12.18;;;6.97;;
30818;SDS011;17546;42.674;23.284;2023-05-13T08:40:30;17.48;;;6.90;;
30818;SDS011;17546;42.674;23.284;2023-05-13T08:42:57;16.77;;;7.00;;
30818;SDS011;17546;42.674;23.284;2023-05-13T08:45:27;11.20;;;6.40;;
30818;SDS011;17546;42.674;23.284;2023-05-13T08:47:55;13.77;;;7.45;;
30818;SDS011;17546;42.674;23.284;2023-05-13T08:50:23;15.02;;;7.00;;
30818;SDS011;17546;42.674;23.284;2023-05-13T08:52:51;17.27;;;7.07;;
30818;SDS011;17546;42.674;23.284;2023-05-13T08:55:29;14.48;;;7.38;;
30818;SDS011;17546;42.674;23.284;2023-05-13T08:57:55;14.95;;;7.10;;
30818;SDS011;17546;42.674;23.284;2023-05-13T09:00:20;21.48;;;7.63;;
30818;SDS011;17546;42.674;23.284;2023-05-13T09:02:46;16.40;;;7.40;;
30818;SDS011;17546;42.674;23.284;2023-05-13T09:05:11;12.40;;;7.15;;
30818;SDS011;17546;42.674;23.284;2023-05-13T09:07:37;17.73;;;7.50;;
30818;SDS011;17546;42.674;23.284;2023-05-13T09:10:19;15.63;;;7.00;;
30818;SDS011;17546;42.674;23.284;2023-05-13T09:12:49;18.38;;;7.38;;
30818;SDS011;17546;42.674;23.284;2023-05-13T09:15:19;10.73;;;7.13;;
30818;SDS011;17546;42.674;23.284;2023-05-13T09:17:54;14.60;;;7.28;;
30818;SDS011;17546;42.674;23.284;2023-05-13T09:20:23;15.00;;;7.43;;
30818;SDS011;17546;42.674;23.284;2023-05-13T09:25:39;13.75;;;6.90;;
30818;SDS011;17546;42.674;23.284;2023-05-13T09:28:12;11.98;;;7.05;;
30818;SDS011;17546;42.674;23.284;2023-05-13T09:30:39;13.90;;;7.20;;
30818;SDS011;17546;42.674;23.284;2023-05-13T09:35:59;10.32;;;6.10;;
30818;SDS011;17546;42.674;23.284;2023-05-13T09:38:28;14.52;;;5.60;;
30818;SDS011;17546;42.674;23.284;2023-05-13T09:41:06;12.90;;;6.43;;
30818;SDS011;17546;42.674;23.284;2023-05-13T09:45:59;27.40;;;10.50;;
30818;SDS011;17546;42.674;23.284;2023-05-13T09:48:26;15.88;;;5.97;;
30818;SDS011;17546;42.674;23.284;2023-05-13T09:50:53;9.68;;;5.30;;
30818;SDS011;17546;42.674;23.284;2023-05-13T09:53:22;12.25;;;6.10;;
30818;SDS011;17546;42.674;23.284;2023-05-13T09:55:48;14.85;;;5.90;;
30818;SDS011;17546;42.674;23.284;2023-05-13T09:58:15;12.10;;;5.70;;
30818;SDS011;17546;42.674;23.284;2023-05-13T10:00:41;15.27;;;7.03;;
30818;SDS011;17546;42.674;23.284;2023-05-13T10:03:07;12.32;;;5.10;;
30818;SDS011;17546;42.674;23.284;2023-05-13T10:05:34;11.15;;;4.93;;
30818;SDS011;17546;42.674;23.284;2023-05-13T10:08:00;12.63;;;6.20;;
30818;SDS011;17546;42.674;23.284;2023-05-13T10:10:30;10.82;;;5.70;;
30818;SDS011;17546;42.674;23.284;2023-05-13T10:13:08;16.83;;;7.93;;
30818;SDS011;17546;42.674;23.284;2023-05-13T10:15:47;14.00;;;6.00;;
30818;SDS011;17546;42.674;23.284;2023-05-13T10:18:17;8.93;;;5.28;;
30818;SDS011;17546;42.674;23.284;2023-05-13T10:20:44;13.68;;;5.85;;
30818;SDS011;17546;42.674;23.284;2023-05-13T10:23:10;10.70;;;5.63;;
30818;SDS011;17546;42.674;23.284;2023-05-13T10:25:36;13.75;;;5.88;;
30818;SDS011;17546;42.674;23.284;2023-05-13T10:28:02;10.77;;;6.28;;
30818;SDS011;17546;42.674;23.284;2023-05-13T10:30:28;13.65;;;7.43;;
30818;SDS011;17546;42.674;23.284;2023-05-13T10:32:56;17.00;;;7.32;;
30818;SDS011;17546;42.674;23.284;2023-05-13T10:35:23;16.77;;;6.43;;
30818;SDS011;17546;42.674;23.284;2023-05-13T10:38:00;15.23;;;5.70;;
30818;SDS011;17546;42.674;23.284;2023-05-13T10:43:14;14.77;;;6.00;;
30818;SDS011;17546;42.674;23.284;2023-05-13T10:45:47;11.10;;;6.28;;
30818;SDS011;17546;42.674;23.284;2023-05-13T10:48:21;11.40;;;6.45;;
30818;SDS011;17546;42.674;23.284;2023-05-13T10:53:23;13.52;;;6.95;;
30818;SDS011;17546;42.674;23.284;2023-05-13T10:55:53;11.15;;;7.45;;
30818;SDS011;17546;42.674;23.284;2023-05-13T10:58:20;14.30;;;6.93;;
30818;SDS011;17546;42.674;23.284;2023-05-13T11:00:52;10.68;;;6.22;;
30818;SDS011;17546;42.674;23.284;2023-05-13T11:05:43;14.02;;;7.38;;
30818;SDS011;17546;42.674;23.284;2023-05-13T11:08:57;11.68;;;7.13;;
30818;SDS011;17546;42.674;23.284;2023-05-13T11:16:46;11.68;;;6.03;;
30818;SDS011;17546;42.674;23.284;2023-05-13T11:19:45;12.98;;;6.25;;
30818;SDS011;17546;42.674;23.284;2023-05-13T11:27:37;12.38;;;6.65;;
30818;SDS011;17546;42.674;23.284;2023-05-13T11:30:07;11.10;;;6.78;;
30818;SDS011;17546;42.674;23.284;2023-05-13T11:35:18;15.07;;;6.45;;
30818;SDS011;17546;42.674;23.284;2023-05-13T11:37:45;14.88;;;6.35;;
30818;SDS011;17546;42.674;23.284;2023-05-13T11:40:11;10.68;;;6.03;;
30818;SDS011;17546;42.674;23.284;2023-05-13T11:42:45;12.40;;;5.45;;
30818;SDS011;17546;42.674;23.284;2023-05-13T11:45:12;9.07;;;6.05;;
30818;SDS011;17546;42.674;23.284;2023-05-13T11:47:37;9.93;;;5.65;;
30818;SDS011;17546;42.674;23.284;2023-05-13T11:50:15;10.25;;;5.30;;
30818;SDS011;17546;42.674;23.284;2023-05-13T11:52:49;7.25;;;5.07;;
30818;SDS011;17546;42.674;23.284;2023-05-13T11:55:26;13.00;;;5.65;;
30818;SDS011;17546;42.674;23.284;2023-05-13T11:57:52;11.07;;;5.10;;
30818;SDS011;17546;42.674;23.284;2023-05-13T12:00:23;14.07;;;5.55;;
30818;SDS011;17546;42.674;23.284;2023-05-13T12:02:50;12.32;;;6.90;;
30818;SDS011;17546;42.674;23.284;2023-05-13T12:05:16;10.82;;;5.45;;
30818;SDS011;17546;42.674;23.284;2023-05-13T12:07:41;16.67;;;5.90;;
30818;SDS011;17546;42.674;23.284;2023-05-13T12:10:08;10.93;;;4.93;;
30818;SDS011;17546;42.674;23.284;2023-05-13T12:12:35;13.52;;;5.28;;
30818;SDS011;17546;42.674;23.284;2023-05-13T12:15:02;8.77;;;5.25;;
30818;SDS011;17546;42.674;23.284;2023-05-13T12:17:31;14.77;;;4.47;;
30818;SDS011;17546;42.674;23.284;2023-05-13T12:20:11;14.70;;;5.03;;
30818;SDS011;17546;42.674;23.284;2023-05-13T12:28:04;11.13;;;4.82;;
30818;SDS011;17546;42.674;23.284;2023-05-13T12:30:41;12.30;;;5.10;;
30818;SDS011;17546;42.674;23.284;2023-05-13T12:33:12;9.68;;;4.68;;
30818;SDS011;17546;42.674;23.284;2023-05-13T12:35:41;11.80;;;4.80;;
30818;SDS011;17546;42.674;23.284;2023-05-13T12:38:07;9.75;;;4.68;;
30818;SDS011;17546;42.674;23.284;2023-05-13T12:40:37;11.50;;;5.20;;
30818;SDS011;17546;42.674;23.284;2023-05-13T12:43:03;14.55;;;4.60;;
30818;SDS011;17546;42.674;23.284;2023-05-13T12:45:29;9.05;;;4.50;;
30818;SDS011;17546;42.674;23.284;2023-05-13T12:47:56;8.48;;;4.70;;
30818;SDS011;17546;42.674;23.284;2023-05-13T12:50:21;9.25;;;4.40;;
30818;SDS011;17546;42.674;23.284;2023-05-13T12:52:47;12.10;;;4.72;;
30818;SDS011;17546;42.674;23.284;2023-05-13T12:55:14;10.25;;;4.75;;
30818;SDS011;17546;42.674;23.284;2023-05-13T12:57:40;8.77;;;4.60;;
30818;SDS011;17546;42.674;23.284;2023-05-13T13:00:09;10.10;;;4.88;;
30818;SDS011;17546;42.674;23.284;2023-05-13T13:02:35;9.98;;;4.32;;
30818;SDS011;17546;42.674;23.284;2023-05-13T13:05:02;12.95;;;4.75;;
30818;SDS011;17546;42.674;23.284;2023-05-13T13:07:28;38.03;;;5.25;;
30818;SDS011;17546;42.674;23.284;2023-05-13T13:09:53;13.45;;;4.75;;
30818;SDS011;17546;42.674;23.284;2023-05-13T13:12:20;11.07;;;4.82;;
30818;SDS011;17546;42.674;23.284;2023-05-13T13:14:46;10.32;;;5.15;;
30818;SDS011;17546;42.674;23.284;2023-05-13T13:17:12;10.38;;;4.90;;
30818;SDS011;17546;42.674;23.284;2023-05-13T13:19:37;12.88;;;4.85;;
30818;SDS011;17546;42.674;23.284;2023-05-13T13:22:03;13.13;;;4.75;;
30818;SDS011;17546;42.674;23.284;2023-05-13T13:24:28;11.63;;;5.10;;
30818;SDS011;17546;42.674;23.284;2023-05-13T13:26:54;8.02;;;5.00;;
30818;SDS011;17546;42.674;23.284;2023-05-13T13:29:19;13.60;;;4.43;;
30818;SDS011;17546;42.674;23.284;2023-05-13T13:31:45;9.23;;;4.40;;
30818;SDS011;17546;42.674;23.284;2023-05-13T13:34:11;10.50;;;4.95;;
30818;SDS011;17546;42.674;23.284;2023-05-13T13:36:37;7.63;;;4.25;;
30818;SDS011;17546;42.674;23.284;2023-05-13T13:39:03;6.97;;;3.78;;
30818;SDS011;17546;42.674;23.284;2023-05-13T13:41:28;7.78;;;5.10;;
30818;SDS011;17546;42.674;23.284;2023-05-13T13:43:54;10.18;;;4.82;;
30818;SDS011;17546;42.674;23.284;2023-05-13T13:46:19;7.50;;;4.13;;
30818;SDS011;17546;42.674;23.284;2023-05-13T13:48:46;9.00;;;4.13;;
30818;SDS011;17546;42.674;23.284;2023-05-13T13:51:12;8.40;;;4.20;;
30818;SDS011;17546;42.674;23.284;2023-05-13T13:53:37;6.63;;;4.45;;
30818;SDS011;17546;42.674;23.284;2023-05-13T13:56:03;11.65;;;4.15;;
30818;SDS011;17546;42.674;23.284;2023-05-13T13:58:28;9.73;;;4.18;;
30818;SDS011;17546;42.674;23.284;2023-05-13T14:00:53;9.52;;;4.43;;
30818;SDS011;17546;42.674;23.284;2023-05-13T14:03:19;9.25;;;4.13;;
30818;SDS011;17546;42.674;23.284;2023-05-13T14:05:44;12.85;;;4.32;;
30818;SDS011;17546;42.674;23.284;2023-05-13T14:08:10;9.48;;;4.40;;
30818;SDS011;17546;42.674;23.284;2023-05-13T14:10:36;10.57;;;4.15;;
30818;SDS011;17546;42.674;23.284;2023-05-13T14:13:01;6.75;;;4.10;;
30818;SDS011;17546;42.674;23.284;2023-05-13T14:15:26;8.20;;;4.13;;
30818;SDS011;17546;42.674;23.284;2023-05-13T14:17:54;6.93;;;4.32;;
30818;SDS011;17546;42.674;23.284;2023-05-13T14:20:20;11.13;;;4.20;;
30818;SDS011;17546;42.674;23.284;2023-05-13T14:22:48;8.95;;;3.67;;
30818;SDS011;17546;42.674;23.284;2023-05-13T14:25:14;11.77;;;4.20;;
30818;SDS011;17546;42.674;23.284;2023-05-13T14:27:40;13.60;;;4.55;;
30818;SDS011;17546;42.674;23.284;2023-05-13T14:30:06;9.55;;;4.35;;
30818;SDS011;17546;42.674;23.284;2023-05-13T14:32:32;10.88;;;5.43;;
30818;SDS011;17546;42.674;23.284;2023-05-13T14:34:58;14.00;;;4.80;;
30818;SDS011;17546;42.674;23.284;2023-05-13T14:37:23;9.68;;;4.20;;
30818;SDS011;17546;42.674;23.284;2023-05-13T14:39:49;7.28;;;4.18;;
30818;SDS011;17546;42.674;23.284;2023-05-13T14:42:15;12.43;;;4.88;;
30818;SDS011;17546;42.674;23.284;2023-05-13T14:44:40;9.43;;;4.30;;
30818;SDS011;17546;42.674;23.284;2023-05-13T14:47:06;11.75;;;4.18;;
30818;SDS011;17546;42.674;23.284;2023-05-13T14:49:32;9.15;;;4.40;;
30818;SDS011;17546;42.674;23.284;2023-05-13T14:51:57;9.40;;;4.28;;
30818;SDS011;17546;42.674;23.284;2023-05-13T14:54:22;13.13;;;4.32;;
30818;SDS011;17546;42.674;23.284;2023-05-13T14:56:49;10.30;;;3.97;;
30818;SDS011;17546;42.674;23.284;2023-05-13T14:59:15;9.55;;;4.75;;
30818;SDS011;17546;42.674;23.284;2023-05-13T15:01:41;14.02;;;4.20;;
30818;SDS011;17546;42.674;23.284;2023-05-13T15:04:06;11.57;;;5.00;;
30818;SDS011;17546;42.674;23.284;2023-05-13T15:06:32;8.73;;;3.58;;
30818;SDS011;17546;42.674;23.284;2023-05-13T15:08:58;11.60;;;4.03;;
30818;SDS011;17546;42.674;23.284;2023-05-13T15:11:25;12.50;;;4.43;;
30818;SDS011;17546;42.674;23.284;2023-05-13T15:13:51;12.15;;;4.00;;
30818;SDS011;17546;42.674;23.284;2023-05-13T15:16:16;10.60;;;4.00;;
30818;SDS011;17546;42.674;23.284;2023-05-13T15:18:43;7.13;;;3.72;;
30818;SDS011;17546;42.674;23.284;2023-05-13T15:21:09;10.63;;;3.92;;
30818;SDS011;17546;42.674;23.284;2023-05-13T15:23:34;19.02;;;4.18;;
30818;SDS011;17546;42.674;23.284;2023-05-13T15:26:00;24.30;;;5.53;;
30818;SDS011;17546;42.674;23.284;2023-05-13T15:28:25;10.95;;;4.35;;
30818;SDS011;17546;42.674;23.284;2023-05-13T15:30:50;7.90;;;4.10;;
30818;SDS011;17546;42.674;23.284;2023-05-13T15:33:16;11.27;;;3.88;;
30818;SDS011;17546;42.674;23.284;2023-05-13T15:35:41;7.88;;;3.80;;
30818;SDS011;17546;42.674;23.284;2023-05-13T15:38:07;19.00;;;4.18;;
30818;SDS011;17546;42.674;23.284;2023-05-13T15:40:34;13.63;;;3.92;;
30818;SDS011;17546;42.674;23.284;2023-05-13T15:43:00;7.65;;;4.00;;
30818;SDS011;17546;42.674;23.284;2023-05-13T15:45:25;7.70;;;3.72;;
30818;SDS011;17546;42.674;23.284;2023-05-13T15:47:51;15.30;;;4.70;;
30818;SDS011;17546;42.674;23.284;2023-05-13T15:50:16;7.55;;;3.33;;
30818;SDS011;17546;42.674;23.284;2023-05-13T15:52:42;9.80;;;3.85;;
30818;SDS011;17546;42.674;23.284;2023-05-13T15:55:08;10.63;;;3.85;;
30818;SDS011;17546;42.674;23.284;2023-05-13T15:57:33;6.15;;;3.55;;
30818;SDS011;17546;42.674;23.284;2023-05-13T15:59:59;5.63;;;3.58;;
30818;SDS011;17546;42.674;23.284;2023-05-13T16:02:24;9.13;;;4.45;;
30818;SDS011;17546;42.674;23.284;2023-05-13T16:04:50;11.85;;;3.63;;
30818;SDS011;17546;42.674;23.284;2023-05-13T16:07:15;9.05;;;2.85;;
30818;SDS011;17546;42.674;23.284;2023-05-13T16:09:40;12.38;;;3.45;;
30818;SDS011;17546;42.674;23.284;2023-05-13T16:12:06;8.55;;;3.20;;
30818;SDS011;17546;42.674;23.284;2023-05-13T16:14:32;5.15;;;2.80;;
30818;SDS011;17546;42.674;23.284;2023-05-13T16:17:00;11.35;;;3.53;;
30818;SDS011;17546;42.674;23.284;2023-05-13T16:19:26;6.95;;;3.60;;
30818;SDS011;17546;42.674;23.284;2023-05-13T16:21:51;6.15;;;3.00;;
30818;SDS011;17546;42.674;23.284;2023-05-13T16:24:17;15.55;;;3.83;;
30818;SDS011;17546;42.674;23.284;2023-05-13T16:26:42;9.43;;;4.75;;
30818;SDS011;17546;42.674;23.284;2023-05-13T16:29:07;5.65;;;3.08;;
30818;SDS011;17546;42.674;23.284;2023-05-13T16:31:48;8.98;;;3.90;;
30818;SDS011;17546;42.674;23.284;2023-05-13T16:34:14;7.65;;;4.18;;
30818;SDS011;17546;42.674;23.284;2023-05-13T16:36:39;4.75;;;3.25;;
30818;SDS011;17546;42.674;23.284;2023-05-13T16:41:54;12.65;;;6.00;;
30818;SDS011;17546;42.674;23.284;2023-05-13T16:44:20;8.63;;;4.55;;
30818;SDS011;17546;42.674;23.284;2023-05-13T16:57:13;15.13;;;4.22;;
30818;SDS011;17546;42.674;23.284;2023-05-13T17:02:04;17.20;;;5.10;;
30818;SDS011;17546;42.674;23.284;2023-05-13T17:04:48;11.43;;;3.88;;
30818;SDS011;17546;42.674;23.284;2023-05-13T17:07:15;10.60;;;4.57;;
30818;SDS011;17546;42.674;23.284;2023-05-13T17:09:40;13.95;;;4.70;;
30818;SDS011;17546;42.674;23.284;2023-05-13T17:12:06;15.88;;;5.13;;
30818;SDS011;17546;42.674;23.284;2023-05-13T17:14:31;12.85;;;4.75;;
30818;SDS011;17546;42.674;23.284;2023-05-13T17:17:07;12.43;;;4.13;;
30818;SDS011;17546;42.674;23.284;2023-05-13T17:19:33;17.40;;;4.60;;
30818;SDS011;17546;42.674;23.284;2023-05-13T17:21:58;12.80;;;4.85;;
30818;SDS011;17546;42.674;23.284;2023-05-13T17:27:12;13.23;;;6.20;;
30818;SDS011;17546;42.674;23.284;2023-05-13T17:29:37;12.38;;;5.35;;
30818;SDS011;17546;42.674;23.284;2023-05-13T17:32:05;12.40;;;4.43;;
30818;SDS011;17546;42.674;23.284;2023-05-13T17:34:31;6.90;;;3.60;;
30818;SDS011;17546;42.674;23.284;2023-05-13T17:36:56;8.85;;;3.60;;
30818;SDS011;17546;42.674;23.284;2023-05-13T17:39:28;8.05;;;3.28;;
30818;SDS011;17546;42.674;23.284;2023-05-13T17:41:54;6.43;;;3.30;;
30818;SDS011;17546;42.674;23.284;2023-05-13T17:44:20;19.33;;;4.00;;